createdAt,value
2019-04-26T00:01:18.267Z,75.47
2019-04-26T00:03:52.507Z,75.78
2019-04-26T00:06:26.409Z,75.58
2019-04-26T00:09:04.265Z,75.20
2019-04-26T00:11:54.793Z,75.60
2019-04-26T00:14:32.807Z,75.38
2019-04-26T00:17:08.001Z,75.28
2019-04-26T00:19:42.871Z,75.25
2019-04-26T00:22:17.179Z,75.05
2019-04-26T00:24:50.750Z,75.07
2019-04-26T00:27:24.354Z,75.53
2019-04-26T00:29:57.860Z,75.76
2019-04-26T00:32:31.481Z,75.92
2019-04-26T00:35:06.641Z,76.03
2019-04-26T00:37:40.060Z,75.69
2019-04-26T00:40:14.316Z,75.33
2019-04-26T00:42:48.016Z,75.95
2019-04-26T00:45:22.945Z,76.13
2019-04-26T00:47:56.530Z,75.96
2019-04-26T00:50:30.922Z,75.74
2019-04-26T00:53:04.551Z,76.27
2019-04-26T00:55:38.541Z,76.46
2019-04-26T00:58:12.643Z,76.38
2019-04-26T01:00:46.601Z,76.74
2019-04-26T01:03:20.681Z,76.89
2019-04-26T01:06:00.090Z,77.64
2019-04-26T01:08:31.079Z,78.14
2019-04-26T01:11:04.660Z,77.94
2019-04-26T01:13:38.216Z,78.10
2019-04-26T01:16:11.678Z,77.64
2019-04-26T01:18:45.439Z,77.41
2019-04-26T01:21:20.631Z,76.89
2019-04-26T01:23:55.791Z,76.67
2019-04-26T01:26:32.165Z,75.93
2019-04-26T01:29:12.486Z,75.79
2019-04-26T01:32:01.149Z,75.87
2019-04-26T01:34:34.976Z,75.81
2019-04-26T01:37:08.728Z,75.86
2019-04-26T01:39:46.755Z,75.76
2019-04-26T01:42:30.422Z,76.06
2019-04-26T01:45:06.357Z,76.21
2019-04-26T01:47:40.511Z,76.39
2019-04-26T01:50:14.446Z,76.63
2019-04-26T01:52:48.481Z,76.91
2019-04-26T01:55:23.219Z,77.19
2019-04-26T01:57:58.025Z,77.63
2019-04-26T02:00:45.298Z,77.60
2019-04-26T02:03:21.554Z,77.98
2019-04-26T02:05:55.835Z,77.73
2019-04-26T02:08:30.344Z,78.17
2019-04-26T02:11:03.905Z,78.22
2019-04-26T02:13:37.276Z,77.89
2019-04-26T02:16:10.721Z,77.59
2019-04-26T02:18:44.218Z,77.50
2019-04-26T02:21:26.353Z,77.98
2019-04-26T02:24:07.625Z,78.27
2019-04-26T02:26:45.580Z,78.47
2019-04-26T02:29:22.351Z,78.32
2019-04-26T02:31:57.994Z,78.34
2019-04-26T02:34:36.080Z,78.61
2019-04-26T02:37:10.999Z,78.17
2019-04-26T02:39:44.544Z,78.27
2019-04-26T02:42:23.783Z,78.58
2019-04-26T02:45:23.049Z,78.98
2019-04-26T02:47:58.634Z,79.54
2019-04-26T02:50:49.535Z,79.39
2019-04-26T02:53:33.711Z,79.23
2019-04-26T02:56:30.292Z,79.53
2019-04-26T02:59:13.550Z,78.95
2019-04-26T03:01:48.634Z,79.44
2019-04-26T03:04:23.698Z,80.12
2019-04-26T03:07:03.478Z,80.34
2019-04-26T03:09:38.722Z,80.55
2019-04-26T03:12:16.159Z,80.91
2019-04-26T03:15:14.147Z,81.48
2019-04-26T03:17:52.096Z,81.21
2019-04-26T03:20:38.354Z,80.30
2019-04-26T03:23:17.774Z,79.48
2019-04-26T03:26:06.550Z,79.53
2019-04-26T03:29:03.809Z,79.28
2019-04-26T03:31:52.008Z,79.00
2019-04-26T03:34:28.855Z,78.53
2019-04-26T03:37:33.761Z,78.79
2019-04-26T03:40:16.973Z,78.17
2019-04-26T03:43:24.064Z,78.04
2019-04-26T03:46:06.520Z,77.84
2019-04-26T03:49:05.742Z,77.96
2019-04-26T03:51:43.107Z,78.36
2019-04-26T03:54:26.206Z,78.34
2019-04-26T03:57:13.982Z,78.33
2019-04-26T03:59:58.008Z,78.06
2019-04-26T04:02:50.863Z,77.97
2019-04-26T04:05:32.074Z,77.95
2019-04-26T04:08:08.162Z,78.64
2019-04-26T04:10:50.888Z,79.26
2019-04-26T04:13:43.302Z,78.76
2019-04-26T04:16:33.493Z,79.17
2019-04-26T04:20:04.836Z,78.69
2019-04-26T04:22:49.257Z,79.09
2019-04-26T04:25:28.418Z,79.23
2019-04-26T04:28:40.043Z,80.02
2019-04-26T04:31:15.637Z,81.78
2019-04-26T04:33:52.701Z,83.02
2019-04-26T04:36:29.576Z,84.83
2019-04-26T04:39:21.312Z,85.12
2019-04-26T04:42:02.255Z,85.77
2019-04-26T04:44:49.944Z,86.42
2019-04-26T04:47:49.216Z,86.22
2019-04-26T04:50:38.041Z,88.14
2019-04-26T04:53:23.399Z,88.81
2019-04-26T04:56:06.247Z,89.02
2019-04-26T04:58:56.592Z,89.63
2019-04-26T05:02:00.104Z,90.01
2019-04-26T05:04:47.359Z,90.57
2019-04-26T05:07:45.577Z,90.33
2019-04-26T05:10:34.362Z,90.43
2019-04-26T05:13:29.121Z,91.04
2019-04-26T05:16:16.330Z,91.27
2019-04-26T05:19:28.981Z,91.83
2019-04-26T05:22:14.432Z,92.25
2019-04-26T05:25:08.280Z,92.73
2019-04-26T05:28:16.512Z,92.81
2019-04-26T05:31:06.676Z,93.64
2019-04-26T05:33:49.031Z,93.37
2019-04-26T05:36:50.398Z,93.67
2019-04-26T05:39:26.806Z,94.28
2019-04-26T05:42:36.644Z,94.25
2019-04-26T05:45:43.043Z,94.45
2019-04-26T05:48:30.060Z,95.19
2019-04-26T05:51:33.655Z,94.16
2019-04-26T05:54:20.761Z,94.28
2019-04-26T05:57:08.226Z,94.24
2019-04-26T05:59:56.911Z,94.34
2019-04-26T06:02:59.116Z,94.11
2019-04-26T06:05:58.605Z,94.81
2019-04-26T06:08:36.770Z,94.63
2019-04-26T06:11:15.090Z,94.94
2019-04-26T06:14:14.579Z,95.15
2019-04-26T06:17:04.535Z,95.37
2019-04-26T06:20:23.094Z,94.83
2019-04-26T06:23:02.097Z,94.73
2019-04-26T06:25:43.012Z,95.23
2019-04-26T06:28:28.765Z,95.09
2019-04-26T06:31:11.113Z,95.51
2019-04-26T06:33:56.611Z,95.47
2019-04-26T06:36:34.741Z,95.06
2019-04-26T06:39:20.482Z,94.61
2019-04-26T06:42:18.611Z,94.83
2019-04-26T06:45:20.491Z,94.89
2019-04-26T06:48:10.474Z,93.87
2019-04-26T06:51:23.292Z,94.58
2019-04-26T06:54:13.397Z,94.74
2019-04-26T06:56:54.791Z,94.87
2019-04-26T06:59:53.829Z,94.91
2019-04-26T07:02:58.982Z,94.82
2019-04-26T07:05:35.077Z,95.08
2019-04-26T07:08:24.085Z,94.41
2019-04-26T07:11:24.876Z,94.00
2019-04-26T07:14:23.969Z,93.67
2019-04-26T07:17:05.728Z,93.33
2019-04-26T07:20:03.265Z,93.34
2019-04-26T07:23:15.006Z,93.60
2019-04-26T07:25:55.014Z,93.42
2019-04-26T07:28:55.973Z,92.57
2019-04-26T07:31:38.128Z,92.97
2019-04-26T07:34:32.962Z,91.64
2019-04-26T07:37:29.421Z,92.40
2019-04-26T07:40:26.795Z,92.30
2019-04-26T07:43:19.204Z,91.74
2019-04-26T07:46:27.498Z,92.41
2019-04-26T07:49:29.796Z,91.76
2019-04-26T07:52:23.012Z,93.22
2019-04-26T07:55:28.024Z,92.39
2019-04-26T07:58:38.120Z,91.59
2019-04-26T08:01:46.618Z,91.08
2019-04-26T08:04:32.913Z,90.73
2019-04-26T08:07:20.898Z,91.89
2019-04-26T08:10:09.988Z,91.54
2019-04-26T08:12:46.480Z,90.72
2019-04-26T08:15:25.983Z,90.20
2019-04-26T08:18:06.675Z,90.25
2019-04-26T08:20:53.760Z,90.63
2019-04-26T08:23:42.165Z,91.02
2019-04-26T08:26:13.411Z,89.34
2019-04-26T08:28:48.644Z,89.96
2019-04-26T08:31:25.595Z,90.84
2019-04-26T08:34:01.631Z,90.88
2019-04-26T08:36:38.650Z,91.54
2019-04-26T08:39:24.541Z,92.18
2019-04-26T08:41:58.560Z,91.27
2019-04-26T08:44:47.810Z,90.56
2019-04-26T08:47:35.460Z,90.65
2019-04-26T08:50:13.727Z,89.75
2019-04-26T08:52:46.985Z,89.41
2019-04-26T08:55:20.949Z,89.44
2019-04-26T08:57:56.836Z,90.02
2019-04-26T09:00:33.798Z,90.26
2019-04-26T09:03:11.618Z,88.67
2019-04-26T09:06:02.922Z,88.76
2019-04-26T09:08:39.197Z,90.44
2019-04-26T09:11:24.076Z,89.78
2019-04-26T09:13:51.550Z,89.27
2019-04-26T09:16:25.181Z,89.62
2019-04-26T09:18:59.763Z,89.89
2019-04-26T09:21:35.138Z,90.45
2019-04-26T09:24:12.974Z,91.46
2019-04-26T09:26:48.478Z,89.82
2019-04-26T09:29:30.221Z,92.05
2019-04-26T09:32:18.650Z,91.08
2019-04-26T09:34:52.331Z,89.91
2019-04-26T09:37:25.961Z,91.04
2019-04-26T09:40:09.544Z,88.89
2019-04-26T09:42:39.327Z,89.16
2019-04-26T09:45:29.864Z,89.20
2019-04-26T09:48:14.045Z,90.50
2019-04-26T09:50:52.155Z,88.95
2019-04-26T09:53:25.769Z,89.68
2019-04-26T09:55:59.406Z,90.42
2019-04-26T09:58:33.120Z,89.50
2019-04-26T10:01:06.807Z,90.39
2019-04-26T10:03:40.398Z,90.29
2019-04-26T10:06:13.975Z,90.56
2019-04-26T10:08:48.059Z,90.42
2019-04-26T10:11:23.320Z,90.79
2019-04-26T10:13:59.233Z,89.96
2019-04-26T10:16:40.236Z,90.27
2019-04-26T10:19:12.951Z,89.21
2019-04-26T10:21:46.596Z,89.78
2019-04-26T10:24:20.088Z,88.71
2019-04-26T10:26:55.438Z,88.04
2019-04-26T10:29:29.100Z,87.98
2019-04-26T10:32:02.508Z,87.55
2019-04-26T10:34:36.177Z,87.21
2019-04-26T10:37:16.790Z,86.00
2019-04-26T10:39:52.597Z,86.27
2019-04-26T10:42:26.274Z,86.04
2019-04-26T10:45:00.071Z,84.60
2019-04-26T10:47:34.375Z,84.83
2019-04-26T10:50:09.552Z,83.94
2019-04-26T10:52:56.351Z,84.20
2019-04-26T10:55:46.346Z,83.24
2019-04-26T10:58:20.468Z,82.70
2019-04-26T11:00:55.765Z,83.61
2019-04-26T11:03:29.379Z,84.98
2019-04-26T11:06:03.110Z,83.65
2019-04-26T11:08:37.122Z,83.87
2019-04-26T11:11:10.927Z,84.02
2019-04-26T11:13:44.580Z,83.71
2019-04-26T11:16:18.315Z,81.50
2019-04-26T11:18:51.898Z,80.24
2019-04-26T11:21:25.606Z,80.62
2019-04-26T11:23:59.074Z,77.62
2019-04-26T11:26:34.811Z,78.94
2019-04-26T11:29:08.064Z,78.01
2019-04-26T11:31:41.760Z,79.48
2019-04-26T11:34:15.500Z,79.84
2019-04-26T11:36:49.047Z,77.99
2019-04-26T11:39:22.583Z,77.25
2019-04-26T11:41:56.065Z,77.26
2019-04-26T11:44:29.451Z,76.75
2019-04-26T11:47:07.510Z,78.09
2019-04-26T11:49:41.621Z,76.77
2019-04-26T11:52:13.320Z,75.00
2019-04-26T11:54:46.946Z,75.93
2019-04-26T11:57:20.388Z,75.99
2019-04-26T11:59:54.057Z,78.04
2019-04-26T12:02:29.203Z,76.95
2019-04-26T12:05:19.989Z,76.33
2019-04-26T12:07:55.300Z,75.20
2019-04-26T12:10:29.224Z,74.09
2019-04-26T12:13:06.025Z,75.64
2019-04-26T12:15:38.999Z,75.43
2019-04-26T12:18:13.561Z,76.26
2019-04-26T12:20:47.274Z,74.79
2019-04-26T12:23:21.848Z,75.26
2019-04-26T12:25:55.739Z,74.59
2019-04-26T12:28:29.172Z,76.28
2019-04-26T12:31:02.758Z,76.14
2019-04-26T12:33:39.168Z,75.78
2019-04-26T12:36:13.356Z,75.84
2019-04-26T12:38:46.901Z,76.22
2019-04-26T12:41:25.250Z,76.94
2019-04-26T12:43:59.544Z,77.29
2019-04-26T12:46:32.707Z,77.48
2019-04-26T12:49:06.282Z,77.83
2019-04-26T12:51:42.785Z,76.65
2019-04-26T12:54:15.092Z,76.65
2019-04-26T12:56:48.715Z,77.28
2019-04-26T12:59:25.988Z,73.96
2019-04-26T13:02:05.617Z,75.91
2019-04-26T13:04:36.102Z,72.61
2019-04-26T13:07:22.702Z,74.94
2019-04-26T13:09:49.285Z,71.50
2019-04-26T13:12:33.169Z,71.12
2019-04-26T13:15:46.177Z,71.06
2019-04-26T13:18:20.944Z,70.06
2019-04-26T13:20:54.597Z,69.60
2019-04-26T13:23:29.822Z,66.66
2019-04-26T13:26:03.318Z,66.66
2019-04-26T13:28:36.849Z,66.02
2019-04-26T13:31:10.515Z,68.36
2019-04-26T13:33:44.012Z,68.80
2019-04-26T13:36:17.534Z,68.80
2019-04-26T13:38:51.058Z,70.49
2019-04-26T13:41:24.720Z,68.08
2019-04-26T13:44:01.296Z,65.11
2019-04-26T13:46:50.114Z,65.11
2019-04-26T13:49:25.228Z,64.52
2019-04-26T13:51:58.784Z,64.52
2019-04-26T13:54:32.303Z,64.09
2019-04-26T13:57:06.053Z,64.65
2019-04-26T13:59:41.107Z,66.04
2019-04-26T14:02:14.880Z,64.75
2019-04-26T14:04:48.911Z,64.23
2019-04-26T14:07:24.517Z,63.22
2019-04-26T14:09:57.940Z,63.49
2019-04-26T14:12:31.347Z,63.00
2019-04-26T14:15:08.427Z,61.14
2019-04-26T14:17:41.719Z,61.40
2019-04-26T14:20:15.255Z,62.78
2019-04-26T14:22:50.546Z,64.64
2019-04-26T14:25:32.084Z,64.03
2019-04-26T14:28:05.792Z,63.37
2019-04-26T14:30:41.872Z,64.59
2019-04-26T14:33:14.574Z,64.98
2019-04-26T14:35:50.550Z,65.84
2019-04-26T14:38:27.916Z,67.29
2019-04-26T14:41:03.982Z,67.08
2019-04-26T14:43:40.431Z,68.12
2019-04-26T14:46:10.509Z,68.61
2019-04-26T14:48:44.668Z,67.51
2019-04-26T14:51:19.207Z,67.65
2019-04-26T14:53:52.698Z,67.10
2019-04-26T14:56:29.461Z,67.08
2019-04-26T14:59:07.963Z,66.34
2019-04-26T15:01:43.997Z,63.75
2019-04-26T15:04:37.301Z,64.88
2019-04-26T15:07:12.141Z,64.03
2019-04-26T15:09:45.715Z,63.95
2019-04-26T15:12:19.143Z,62.55
2019-04-26T15:14:53.752Z,64.57
2019-04-26T15:17:28.932Z,62.45
2019-04-26T15:20:03.345Z,63.68
2019-04-26T15:22:36.971Z,63.43
2019-04-26T15:25:11.953Z,62.80
2019-04-26T15:27:45.601Z,63.46
2019-04-26T15:30:19.090Z,64.73
2019-04-26T15:32:53.031Z,66.33
2019-04-26T15:35:28.342Z,67.25
2019-04-26T15:38:02.483Z,69.39
2019-04-26T15:40:43.288Z,70.60
2019-04-26T15:43:24.446Z,71.28
2019-04-26T15:46:15.449Z,71.23
2019-04-26T15:49:09.540Z,73.19
2019-04-26T15:51:42.759Z,73.34
2019-04-26T15:54:17.898Z,72.06
2019-04-26T15:56:55.316Z,72.55
2019-04-26T15:59:28.863Z,72.21
2019-04-26T16:02:02.684Z,73.54
2019-04-26T16:04:36.094Z,74.19
2019-04-26T16:07:09.470Z,74.21
2019-04-26T16:09:43.580Z,73.55
2019-04-26T16:12:20.280Z,74.09
2019-04-26T16:14:52.172Z,74.29
2019-04-26T16:17:25.929Z,74.15
2019-04-26T16:20:00.137Z,74.49
2019-04-26T16:22:34.872Z,73.18
2019-04-26T16:25:08.691Z,73.99
2019-04-26T16:27:43.092Z,73.48
2019-04-26T16:30:32.584Z,74.79
2019-04-26T16:33:19.223Z,74.25
2019-04-26T16:35:52.835Z,74.08
2019-04-26T16:38:33.663Z,75.15
2019-04-26T16:41:07.774Z,74.63
2019-04-26T16:43:50.902Z,74.62
2019-04-26T16:46:20.262Z,74.99
2019-04-26T16:48:56.197Z,75.26
2019-04-26T16:51:27.088Z,75.50
2019-04-26T16:54:08.575Z,76.11
2019-04-26T16:56:36.124Z,75.22
2019-04-26T16:59:14.270Z,76.04
2019-04-26T17:01:47.311Z,76.48
2019-04-26T17:04:24.772Z,76.51
2019-04-26T17:06:55.390Z,77.16
2019-04-26T17:09:52.326Z,77.19
2019-04-26T17:12:06.082Z,76.82
2019-04-26T17:14:40.548Z,77.43
2019-04-26T17:17:14.716Z,76.71
2019-04-26T17:19:48.328Z,76.85
2019-04-26T17:22:23.354Z,77.04
2019-04-26T17:25:04.160Z,77.57
2019-04-26T17:27:40.246Z,77.72
2019-04-26T17:30:14.838Z,78.15
2019-04-26T17:32:51.641Z,77.73
2019-04-26T17:35:25.250Z,77.86
2019-04-26T17:38:01.986Z,79.13
2019-04-26T17:40:36.686Z,80.20
2019-04-26T17:43:09.966Z,80.21
2019-04-26T17:45:44.366Z,79.71
2019-04-26T17:48:18.116Z,79.83
2019-04-26T17:50:51.614Z,80.17
2019-04-26T17:53:30.591Z,80.39
2019-04-26T17:56:00.642Z,80.96
2019-04-26T17:58:43.271Z,81.08
2019-04-26T18:01:09.603Z,81.85
2019-04-26T18:03:50.826Z,82.92
2019-04-26T18:06:29.129Z,83.42
2019-04-26T18:08:55.183Z,83.92
2019-04-26T18:11:28.825Z,84.20
2019-04-26T18:14:02.289Z,84.31
2019-04-26T18:16:37.382Z,83.90
2019-04-26T18:19:12.827Z,84.02
2019-04-26T18:21:56.088Z,84.39
2019-04-26T18:24:27.582Z,84.05
2019-04-26T18:27:03.575Z,84.37
2019-04-26T18:29:37.045Z,84.89
2019-04-26T18:32:10.585Z,84.50
2019-04-26T18:34:44.033Z,84.82
2019-04-26T18:37:17.511Z,84.70
2019-04-26T18:39:51.087Z,84.90
2019-04-26T18:42:24.846Z,85.08
2019-04-26T18:44:59.702Z,85.05
2019-04-26T18:47:34.801Z,84.81
2019-04-26T18:50:09.053Z,84.77
2019-04-26T18:52:44.259Z,84.79
2019-04-26T18:55:21.553Z,84.55
2019-04-26T18:58:01.242Z,84.69
2019-04-26T19:00:31.469Z,84.93
2019-04-26T19:03:05.287Z,85.06
2019-04-26T19:05:38.799Z,84.92
2019-04-26T19:08:13.283Z,85.00
2019-04-26T19:10:58.217Z,85.16
2019-04-26T19:13:41.131Z,85.85
2019-04-26T19:16:32.365Z,86.19
2019-04-26T19:19:15.388Z,86.55
2019-04-26T19:22:00.829Z,86.50
2019-04-26T19:24:34.384Z,87.13
2019-04-26T19:27:07.837Z,87.27
2019-04-26T19:29:43.238Z,87.53
2019-04-26T19:32:16.655Z,88.03
2019-04-26T19:34:50.088Z,87.99
2019-04-26T19:37:23.618Z,88.04
2019-04-26T19:39:57.248Z,88.01
2019-04-26T19:42:32.289Z,88.69
2019-04-26T19:45:16.650Z,88.78
2019-04-26T19:47:58.367Z,88.66
2019-04-26T19:50:33.436Z,88.83
2019-04-26T19:53:17.428Z,88.71
2019-04-26T19:55:51.547Z,88.61
2019-04-26T19:58:26.823Z,88.68
2019-04-26T20:01:02.267Z,88.60
2019-04-26T20:03:36.122Z,88.58
2019-04-26T20:06:14.233Z,88.83
2019-04-26T20:08:46.952Z,89.12
2019-04-26T20:11:20.567Z,89.58
2019-04-26T20:13:55.334Z,89.67
2019-04-26T20:16:29.080Z,89.46
2019-04-26T20:19:02.758Z,89.84
2019-04-26T20:21:36.512Z,89.78
2019-04-26T20:24:10.094Z,89.81
2019-04-26T20:26:44.673Z,89.73
2019-04-26T20:29:18.346Z,89.82
2019-04-26T20:31:56.174Z,89.94
2019-04-26T20:34:29.692Z,89.95
2019-04-26T20:37:03.248Z,90.44
2019-04-26T20:39:36.793Z,90.28
2019-04-26T20:42:11.948Z,90.27
2019-04-26T20:44:51.073Z,90.37
2019-04-26T20:47:21.787Z,90.19
2019-04-26T20:50:01.266Z,90.68
2019-04-26T20:52:32.051Z,90.99
2019-04-26T20:55:06.450Z,91.37
2019-04-26T20:57:42.739Z,91.25
2019-04-26T21:00:15.278Z,90.82
2019-04-26T21:02:48.818Z,90.52
2019-04-26T21:05:22.446Z,90.47
2019-04-26T21:07:55.969Z,90.75
2019-04-26T21:10:29.461Z,90.67
2019-04-26T21:13:03.203Z,90.69
2019-04-26T21:15:36.691Z,90.58
2019-04-26T21:18:10.245Z,90.25
2019-04-26T21:20:43.897Z,90.34
2019-04-26T21:23:17.440Z,90.48
2019-04-26T21:25:58.176Z,90.41
2019-04-26T21:28:33.379Z,90.21
2019-04-26T21:31:24.707Z,90.48
2019-04-26T21:33:59.912Z,90.66
2019-04-26T21:36:41.066Z,90.79
2019-04-26T21:39:24.298Z,90.84
2019-04-26T21:42:03.458Z,90.86
2019-04-26T21:44:37.105Z,90.84
2019-04-26T21:47:10.626Z,90.56
2019-04-26T21:49:44.220Z,90.76
2019-04-26T21:52:21.381Z,90.70
2019-04-26T21:54:56.305Z,90.67
2019-04-26T21:57:28.440Z,91.05
2019-04-26T22:00:04.025Z,90.86
2019-04-26T22:02:37.638Z,90.57
2019-04-26T22:05:14.903Z,90.92
2019-04-26T22:07:47.831Z,90.75
2019-04-26T22:10:23.627Z,90.66
2019-04-26T22:13:01.510Z,90.63
2019-04-26T22:15:37.514Z,90.87
2019-04-26T22:18:27.462Z,90.92
2019-04-26T22:21:02.549Z,90.80
2019-04-26T22:23:54.859Z,90.54
2019-04-26T22:26:28.396Z,90.66
2019-04-26T22:29:03.716Z,90.60
2019-04-26T22:31:37.959Z,90.53
2019-04-26T22:34:12.957Z,90.76
2019-04-26T22:36:46.449Z,90.63
2019-04-26T22:39:20.175Z,90.61
2019-04-26T22:41:53.685Z,90.44
2019-04-26T22:44:31.359Z,90.53
2019-04-26T22:47:11.477Z,90.75
2019-04-26T22:49:45.437Z,91.13
2019-04-26T22:52:18.929Z,90.90
2019-04-26T22:54:53.879Z,90.69
2019-04-26T22:57:27.819Z,90.65
2019-04-26T23:00:01.209Z,90.56
2019-04-26T23:02:34.674Z,90.31
2019-04-26T23:05:08.811Z,90.29
2019-04-26T23:07:42.164Z,90.61
2019-04-26T23:10:16.103Z,90.65
2019-04-26T23:12:51.192Z,90.39
2019-04-26T23:15:43.272Z,90.03
2019-04-26T23:18:38.712Z,89.59
2019-04-26T23:21:15.752Z,89.18
2019-04-26T23:23:49.191Z,89.23
2019-04-26T23:26:23.116Z,89.13
2019-04-26T23:28:56.590Z,89.22
2019-04-26T23:31:30.118Z,89.97
2019-04-26T23:34:03.529Z,89.67
2019-04-26T23:36:36.895Z,89.76
2019-04-26T23:39:12.158Z,89.53
2019-04-26T23:41:45.423Z,89.33
2019-04-26T23:44:18.751Z,89.35
2019-04-26T23:46:56.581Z,89.27
2019-04-26T23:49:27.345Z,89.52
2019-04-26T23:52:00.724Z,89.46
2019-04-26T23:54:35.874Z,89.43
2019-04-26T23:57:09.357Z,89.00
2019-04-26T23:59:43.148Z,88.41
